sensor_id;sensor_type;location;lat;lon;timestamp;P1;durP1;ratioP1;P2;durP2;ratioP2
76761;SDS011;65705;51.032;13.790;2023-03-20T00:00:43;19.73;;;11.35;;
76761;SDS011;65705;51.032;13.790;2023-03-20T00:03:11;22.63;;;12.00;;
76761;SDS011;65705;51.032;13.790;2023-03-20T00:05:37;20.50;;;11.52;;
76761;SDS011;65705;51.032;13.790;2023-03-20T00:08:04;19.27;;;11.30;;
76761;SDS011;65705;51.032;13.790;2023-03-20T00:10:37;21.77;;;12.05;;
76761;SDS011;65705;51.032;13.790;2023-03-20T00:13:07;22.48;;;11.57;;
76761;SDS011;65705;51.032;13.790;2023-03-20T00:15:40;23.30;;;12.73;;
76761;SDS011;65705;51.032;13.790;2023-03-20T00:18:12;22.05;;;12.55;;
76761;SDS011;65705;51.032;13.790;2023-03-20T00:20:44;22.63;;;11.63;;
76761;SDS011;65705;51.032;13.790;2023-03-20T00:23:10;22.45;;;12.98;;
76761;SDS011;65705;51.032;13.790;2023-03-20T00:25:37;21.48;;;11.90;;
76761;SDS011;65705;51.032;13.790;2023-03-20T00:28:13;23.02;;;12.68;;
76761;SDS011;65705;51.032;13.790;2023-03-20T00:34:01;22.27;;;13.10;;
76761;SDS011;65705;51.032;13.790;2023-03-20T00:36:29;22.15;;;12.98;;
76761;SDS011;65705;51.032;13.790;2023-03-20T00:38:57;22.48;;;13.23;;
76761;SDS011;65705;51.032;13.790;2023-03-20T00:41:27;24.40;;;13.90;;
76761;SDS011;65705;51.032;13.790;2023-03-20T00:44:03;22.33;;;12.60;;
76761;SDS011;65705;51.032;13.790;2023-03-20T00:46:41;23.23;;;13.25;;
76761;SDS011;65705;51.032;13.790;2023-03-20T00:49:10;26.30;;;13.48;;
76761;SDS011;65705;51.032;13.790;2023-03-20T00:51:37;22.13;;;12.63;;
76761;SDS011;65705;51.032;13.790;2023-03-20T00:54:14;22.38;;;13.65;;
76761;SDS011;65705;51.032;13.790;2023-03-20T00:56:45;26.67;;;14.80;;
76761;SDS011;65705;51.032;13.790;2023-03-20T00:59:34;26.23;;;14.60;;
76761;SDS011;65705;51.032;13.790;2023-03-20T01:02:02;24.98;;;13.85;;
76761;SDS011;65705;51.032;13.790;2023-03-20T01:04:38;25.35;;;14.23;;
76761;SDS011;65705;51.032;13.790;2023-03-20T01:07:07;24.92;;;13.90;;
76761;SDS011;65705;51.032;13.790;2023-03-20T01:09:38;28.15;;;14.55;;
76761;SDS011;65705;51.032;13.790;2023-03-20T01:12:03;27.95;;;14.95;;
76761;SDS011;65705;51.032;13.790;2023-03-20T01:14:33;28.50;;;15.52;;
76761;SDS011;65705;51.032;13.790;2023-03-20T01:16:59;31.20;;;14.98;;
76761;SDS011;65705;51.032;13.790;2023-03-20T01:19:25;27.65;;;16.80;;
76761;SDS011;65705;51.032;13.790;2023-03-20T01:21:50;29.50;;;15.70;;
76761;SDS011;65705;51.032;13.790;2023-03-20T01:24:16;28.88;;;15.52;;
76761;SDS011;65705;51.032;13.790;2023-03-20T01:26:42;26.13;;;15.13;;
76761;SDS011;65705;51.032;13.790;2023-03-20T01:29:23;28.42;;;15.38;;
76761;SDS011;65705;51.032;13.790;2023-03-20T01:31:50;29.15;;;16.83;;
76761;SDS011;65705;51.032;13.790;2023-03-20T01:34:17;26.65;;;15.45;;
76761;SDS011;65705;51.032;13.790;2023-03-20T01:36:45;24.98;;;14.57;;
76761;SDS011;65705;51.032;13.790;2023-03-20T01:39:16;27.70;;;16.00;;
76761;SDS011;65705;51.032;13.790;2023-03-20T01:41:46;28.67;;;16.38;;
76761;SDS011;65705;51.032;13.790;2023-03-20T01:44:21;28.23;;;16.23;;
76761;SDS011;65705;51.032;13.790;2023-03-20T01:46:56;27.58;;;15.32;;
76761;SDS011;65705;51.032;13.790;2023-03-20T01:51:50;27.25;;;15.38;;
76761;SDS011;65705;51.032;13.790;2023-03-20T01:54:22;28.05;;;15.93;;
76761;SDS011;65705;51.032;13.790;2023-03-20T01:59:40;25.13;;;15.55;;
76761;SDS011;65705;51.032;13.790;2023-03-20T02:02:43;27.00;;;15.55;;
76761;SDS011;65705;51.032;13.790;2023-03-20T02:05:19;27.42;;;15.23;;
76761;SDS011;65705;51.032;13.790;2023-03-20T02:08:30;31.00;;;15.65;;
76761;SDS011;65705;51.032;13.790;2023-03-20T02:10:47;29.90;;;15.10;;
76761;SDS011;65705;51.032;13.790;2023-03-20T02:13:25;25.05;;;14.23;;
76761;SDS011;65705;51.032;13.790;2023-03-20T02:16:03;25.08;;;14.38;;
76761;SDS011;65705;51.032;13.790;2023-03-20T02:18:48;26.13;;;15.70;;
76761;SDS011;65705;51.032;13.790;2023-03-20T02:27:06;27.20;;;16.05;;
76761;SDS011;65705;51.032;13.790;2023-03-20T02:29:49;24.83;;;15.35;;
76761;SDS011;65705;51.032;13.790;2023-03-20T02:44:13;25.42;;;14.75;;
76761;SDS011;65705;51.032;13.790;2023-03-20T02:47:03;27.10;;;15.43;;
76761;SDS011;65705;51.032;13.790;2023-03-20T02:52:30;24.75;;;15.60;;
76761;SDS011;65705;51.032;13.790;2023-03-20T02:55:15;26.23;;;16.20;;
76761;SDS011;65705;51.032;13.790;2023-03-20T02:58:11;28.15;;;16.05;;
76761;SDS011;65705;51.032;13.790;2023-03-20T03:00:39;31.83;;;17.20;;
76761;SDS011;65705;51.032;13.790;2023-03-20T03:03:28;32.80;;;16.65;;
76761;SDS011;65705;51.032;13.790;2023-03-20T03:06:07;33.33;;;17.15;;
76761;SDS011;65705;51.032;13.790;2023-03-20T03:08:43;29.33;;;16.70;;
76761;SDS011;65705;51.032;13.790;2023-03-20T03:11:13;28.90;;;15.98;;
76761;SDS011;65705;51.032;13.790;2023-03-20T03:13:42;29.63;;;17.65;;
76761;SDS011;65705;51.032;13.790;2023-03-20T03:16:13;33.05;;;17.85;;
76761;SDS011;65705;51.032;13.790;2023-03-20T03:18:44;33.55;;;18.67;;
76761;SDS011;65705;51.032;13.790;2023-03-20T03:21:11;30.80;;;17.08;;
76761;SDS011;65705;51.032;13.790;2023-03-20T03:23:42;31.30;;;16.63;;
76761;SDS011;65705;51.032;13.790;2023-03-20T03:28:43;31.02;;;17.27;;
76761;SDS011;65705;51.032;13.790;2023-03-20T03:31:15;30.67;;;18.20;;
76761;SDS011;65705;51.032;13.790;2023-03-20T03:33:47;29.33;;;17.33;;
76761;SDS011;65705;51.032;13.790;2023-03-20T03:39:39;29.60;;;17.38;;
76761;SDS011;65705;51.032;13.790;2023-03-20T03:44:42;30.30;;;17.63;;
76761;SDS011;65705;51.032;13.790;2023-03-20T03:50:17;27.02;;;17.95;;
76761;SDS011;65705;51.032;13.790;2023-03-20T03:52:46;32.00;;;17.88;;
76761;SDS011;65705;51.032;13.790;2023-03-20T03:55:17;29.98;;;17.88;;
76761;SDS011;65705;51.032;13.790;2023-03-20T03:57:57;26.48;;;17.27;;
76761;SDS011;65705;51.032;13.790;2023-03-20T04:00:27;30.65;;;18.20;;
76761;SDS011;65705;51.032;13.790;2023-03-20T04:02:54;29.75;;;17.00;;
76761;SDS011;65705;51.032;13.790;2023-03-20T04:05:23;28.73;;;17.60;;
76761;SDS011;65705;51.032;13.790;2023-03-20T04:07:55;34.65;;;18.58;;
76761;SDS011;65705;51.032;13.790;2023-03-20T04:10:24;26.65;;;17.58;;
76761;SDS011;65705;51.032;13.790;2023-03-20T04:12:49;34.17;;;18.80;;
76761;SDS011;65705;51.032;13.790;2023-03-20T04:15:15;27.92;;;17.45;;
76761;SDS011;65705;51.032;13.790;2023-03-20T04:17:42;26.80;;;17.15;;
76761;SDS011;65705;51.032;13.790;2023-03-20T04:20:10;29.60;;;16.88;;
76761;SDS011;65705;51.032;13.790;2023-03-20T04:22:37;27.85;;;16.50;;
76761;SDS011;65705;51.032;13.790;2023-03-20T04:25:06;33.33;;;17.83;;
76761;SDS011;65705;51.032;13.790;2023-03-20T04:27:34;31.05;;;18.20;;
76761;SDS011;65705;51.032;13.790;2023-03-20T04:30:07;31.67;;;17.45;;
76761;SDS011;65705;51.032;13.790;2023-03-20T04:32:57;30.35;;;18.38;;
76761;SDS011;65705;51.032;13.790;2023-03-20T04:35:33;31.55;;;18.10;;
76761;SDS011;65705;51.032;13.790;2023-03-20T04:38:03;27.25;;;16.73;;
76761;SDS011;65705;51.032;13.790;2023-03-20T04:40:32;30.10;;;17.75;;
76761;SDS011;65705;51.032;13.790;2023-03-20T04:42:57;29.05;;;15.80;;
76761;SDS011;65705;51.032;13.790;2023-03-20T04:45:23;28.73;;;16.70;;
76761;SDS011;65705;51.032;13.790;2023-03-20T04:47:49;29.08;;;18.13;;
76761;SDS011;65705;51.032;13.790;2023-03-20T04:50:18;31.48;;;17.75;;
76761;SDS011;65705;51.032;13.790;2023-03-20T04:52:44;28.88;;;16.50;;
76761;SDS011;65705;51.032;13.790;2023-03-20T04:55:11;28.88;;;17.10;;
76761;SDS011;65705;51.032;13.790;2023-03-20T04:57:37;26.02;;;17.10;;
76761;SDS011;65705;51.032;13.790;2023-03-20T05:00:03;30.88;;;17.52;;
76761;SDS011;65705;51.032;13.790;2023-03-20T05:02:30;33.63;;;18.55;;
76761;SDS011;65705;51.032;13.790;2023-03-20T05:04:56;31.05;;;18.48;;
76761;SDS011;65705;51.032;13.790;2023-03-20T05:07:22;27.73;;;17.00;;
76761;SDS011;65705;51.032;13.790;2023-03-20T05:09:59;26.70;;;16.05;;
76761;SDS011;65705;51.032;13.790;2023-03-20T05:12:26;27.98;;;16.73;;
76761;SDS011;65705;51.032;13.790;2023-03-20T05:14:58;28.95;;;17.75;;
76761;SDS011;65705;51.032;13.790;2023-03-20T05:17:42;30.42;;;17.95;;
76761;SDS011;65705;51.032;13.790;2023-03-20T05:20:23;34.00;;;17.52;;
76761;SDS011;65705;51.032;13.790;2023-03-20T05:23:03;29.63;;;16.98;;
76761;SDS011;65705;51.032;13.790;2023-03-20T05:25:45;26.60;;;15.05;;
76761;SDS011;65705;51.032;13.790;2023-03-20T05:28:42;28.75;;;16.65;;
76761;SDS011;65705;51.032;13.790;2023-03-20T05:31:31;26.50;;;15.52;;
76761;SDS011;65705;51.032;13.790;2023-03-20T05:34:07;25.25;;;15.65;;
76761;SDS011;65705;51.032;13.790;2023-03-20T05:36:56;27.42;;;14.75;;
76761;SDS011;65705;51.032;13.790;2023-03-20T05:39:40;29.20;;;16.40;;
76761;SDS011;65705;51.032;13.790;2023-03-20T05:42:30;28.13;;;17.00;;
76761;SDS011;65705;51.032;13.790;2023-03-20T05:45:24;25.10;;;14.68;;
76761;SDS011;65705;51.032;13.790;2023-03-20T05:48:29;24.83;;;15.13;;
76761;SDS011;65705;51.032;13.790;2023-03-20T05:51:13;19.83;;;11.98;;
76761;SDS011;65705;51.032;13.790;2023-03-20T05:53:53;19.60;;;12.00;;
76761;SDS011;65705;51.032;13.790;2023-03-20T05:56:42;26.95;;;13.95;;
76761;SDS011;65705;51.032;13.790;2023-03-20T05:59:33;26.05;;;15.40;;
76761;SDS011;65705;51.032;13.790;2023-03-20T06:02:15;27.83;;;15.18;;
76761;SDS011;65705;51.032;13.790;2023-03-20T06:04:48;26.88;;;15.48;;
76761;SDS011;65705;51.032;13.790;2023-03-20T06:07:26;25.38;;;14.45;;
76761;SDS011;65705;51.032;13.790;2023-03-20T06:09:59;22.55;;;11.60;;
76761;SDS011;65705;51.032;13.790;2023-03-20T06:12:26;23.17;;;13.75;;
76761;SDS011;65705;51.032;13.790;2023-03-20T06:14:52;17.05;;;8.68;;
76761;SDS011;65705;51.032;13.790;2023-03-20T06:17:19;22.10;;;12.38;;
76761;SDS011;65705;51.032;13.790;2023-03-20T06:19:50;18.48;;;10.95;;
76761;SDS011;65705;51.032;13.790;2023-03-20T06:22:16;17.92;;;11.05;;
76761;SDS011;65705;51.032;13.790;2023-03-20T06:24:42;11.18;;;6.82;;
76761;SDS011;65705;51.032;13.790;2023-03-20T06:27:09;17.58;;;10.55;;
76761;SDS011;65705;51.032;13.790;2023-03-20T06:29:35;24.63;;;13.43;;
76761;SDS011;65705;51.032;13.790;2023-03-20T06:32:14;18.52;;;10.15;;
76761;SDS011;65705;51.032;13.790;2023-03-20T06:34:42;21.00;;;11.10;;
76761;SDS011;65705;51.032;13.790;2023-03-20T06:37:08;14.38;;;7.80;;
76761;SDS011;65705;51.032;13.790;2023-03-20T06:39:33;10.15;;;6.32;;
76761;SDS011;65705;51.032;13.790;2023-03-20T06:42:01;12.45;;;6.20;;
76761;SDS011;65705;51.032;13.790;2023-03-20T06:44:27;5.75;;;2.80;;
76761;SDS011;65705;51.032;13.790;2023-03-20T06:47:13;5.25;;;2.65;;
76761;SDS011;65705;51.032;13.790;2023-03-20T06:49:40;3.80;;;2.13;;
76761;SDS011;65705;51.032;13.790;2023-03-20T06:52:06;3.78;;;1.88;;
76761;SDS011;65705;51.032;13.790;2023-03-20T06:54:36;6.43;;;3.13;;
76761;SDS011;65705;51.032;13.790;2023-03-20T06:57:01;3.65;;;1.90;;
76761;SDS011;65705;51.032;13.790;2023-03-20T06:59:27;3.85;;;2.08;;
76761;SDS011;65705;51.032;13.790;2023-03-20T07:01:56;3.72;;;1.80;;
76761;SDS011;65705;51.032;13.790;2023-03-20T07:04:23;4.47;;;2.15;;
76761;SDS011;65705;51.032;13.790;2023-03-20T07:06:52;6.57;;;3.13;;
76761;SDS011;65705;51.032;13.790;2023-03-20T07:09:18;2.78;;;1.73;;
76761;SDS011;65705;51.032;13.790;2023-03-20T07:11:46;4.47;;;1.92;;
76761;SDS011;65705;51.032;13.790;2023-03-20T07:14:13;5.32;;;2.00;;
76761;SDS011;65705;51.032;13.790;2023-03-20T07:16:53;6.25;;;3.10;;
76761;SDS011;65705;51.032;13.790;2023-03-20T07:19:20;5.43;;;2.38;;
76761;SDS011;65705;51.032;13.790;2023-03-20T07:21:50;5.13;;;2.42;;
76761;SDS011;65705;51.032;13.790;2023-03-20T07:24:20;5.35;;;2.45;;
76761;SDS011;65705;51.032;13.790;2023-03-20T07:26:46;11.38;;;2.25;;
76761;SDS011;65705;51.032;13.790;2023-03-20T07:29:12;3.88;;;2.00;;
76761;SDS011;65705;51.032;13.790;2023-03-20T07:31:39;7.03;;;1.90;;
76761;SDS011;65705;51.032;13.790;2023-03-20T07:34:15;4.75;;;2.20;;
76761;SDS011;65705;51.032;13.790;2023-03-20T07:36:41;3.88;;;2.13;;
76761;SDS011;65705;51.032;13.790;2023-03-20T07:39:08;6.70;;;2.17;;
76761;SDS011;65705;51.032;13.790;2023-03-20T07:41:36;4.50;;;2.40;;
76761;SDS011;65705;51.032;13.790;2023-03-20T07:44:05;5.05;;;2.47;;
76761;SDS011;65705;51.032;13.790;2023-03-20T07:46:32;6.03;;;2.28;;
76761;SDS011;65705;51.032;13.790;2023-03-20T07:48:59;5.72;;;2.40;;
76761;SDS011;65705;51.032;13.790;2023-03-20T07:51:25;3.85;;;2.13;;
76761;SDS011;65705;51.032;13.790;2023-03-20T07:53:50;6.38;;;2.42;;
76761;SDS011;65705;51.032;13.790;2023-03-20T07:56:16;6.88;;;2.75;;
76761;SDS011;65705;51.032;13.790;2023-03-20T07:58:42;4.80;;;2.70;;
76761;SDS011;65705;51.032;13.790;2023-03-20T08:01:08;6.82;;;2.60;;
76761;SDS011;65705;51.032;13.790;2023-03-20T08:03:33;6.18;;;2.92;;
76761;SDS011;65705;51.032;13.790;2023-03-20T08:05:59;7.68;;;4.60;;
76761;SDS011;65705;51.032;13.790;2023-03-20T08:08:26;7.28;;;2.60;;
76761;SDS011;65705;51.032;13.790;2023-03-20T08:10:51;6.43;;;3.20;;
76761;SDS011;65705;51.032;13.790;2023-03-20T08:13:17;6.32;;;3.25;;
76761;SDS011;65705;51.032;13.790;2023-03-20T08:15:43;5.35;;;2.88;;
76761;SDS011;65705;51.032;13.790;2023-03-20T08:18:11;5.38;;;3.08;;
76761;SDS011;65705;51.032;13.790;2023-03-20T08:20:37;8.65;;;4.28;;
76761;SDS011;65705;51.032;13.790;2023-03-20T08:23:02;5.10;;;3.20;;
76761;SDS011;65705;51.032;13.790;2023-03-20T08:25:28;9.48;;;3.92;;
76761;SDS011;65705;51.032;13.790;2023-03-20T08:27:58;8.25;;;4.53;;
76761;SDS011;65705;51.032;13.790;2023-03-20T08:30:25;7.70;;;3.47;;
76761;SDS011;65705;51.032;13.790;2023-03-20T08:32:51;8.57;;;3.88;;
76761;SDS011;65705;51.032;13.790;2023-03-20T08:35:17;6.80;;;3.30;;
76761;SDS011;65705;51.032;13.790;2023-03-20T08:37:42;11.32;;;3.65;;
76761;SDS011;65705;51.032;13.790;2023-03-20T08:40:08;6.50;;;3.70;;
76761;SDS011;65705;51.032;13.790;2023-03-20T08:42:35;7.95;;;3.53;;
76761;SDS011;65705;51.032;13.790;2023-03-20T08:45:01;6.68;;;3.33;;
76761;SDS011;65705;51.032;13.790;2023-03-20T08:47:27;6.82;;;3.35;;
76761;SDS011;65705;51.032;13.790;2023-03-20T08:49:52;6.03;;;3.45;;
76761;SDS011;65705;51.032;13.790;2023-03-20T08:52:19;8.60;;;3.80;;
76761;SDS011;65705;51.032;13.790;2023-03-20T08:54:45;8.68;;;3.63;;
76761;SDS011;65705;51.032;13.790;2023-03-20T08:57:11;8.55;;;4.65;;
76761;SDS011;65705;51.032;13.790;2023-03-20T08:59:37;11.32;;;4.43;;
76761;SDS011;65705;51.032;13.790;2023-03-20T09:02:03;10.30;;;4.90;;
76761;SDS011;65705;51.032;13.790;2023-03-20T09:04:29;9.63;;;4.50;;
76761;SDS011;65705;51.032;13.790;2023-03-20T09:06:55;9.55;;;4.53;;
76761;SDS011;65705;51.032;13.790;2023-03-20T09:09:21;11.15;;;5.10;;
76761;SDS011;65705;51.032;13.790;2023-03-20T09:11:54;13.30;;;6.22;;
76761;SDS011;65705;51.032;13.790;2023-03-20T09:14:21;13.63;;;7.53;;
76761;SDS011;65705;51.032;13.790;2023-03-20T09:16:48;16.08;;;8.63;;
76761;SDS011;65705;51.032;13.790;2023-03-20T09:19:15;17.80;;;8.82;;
76761;SDS011;65705;51.032;13.790;2023-03-20T09:21:42;15.88;;;8.55;;
76761;SDS011;65705;51.032;13.790;2023-03-20T09:24:08;15.65;;;8.45;;
76761;SDS011;65705;51.032;13.790;2023-03-20T09:26:33;15.85;;;8.57;;
76761;SDS011;65705;51.032;13.790;2023-03-20T09:28:59;18.98;;;10.10;;
76761;SDS011;65705;51.032;13.790;2023-03-20T09:31:25;20.95;;;10.75;;
76761;SDS011;65705;51.032;13.790;2023-03-20T09:33:51;19.42;;;9.68;;
76761;SDS011;65705;51.032;13.790;2023-03-20T09:36:17;18.52;;;9.70;;
76761;SDS011;65705;51.032;13.790;2023-03-20T09:38:43;23.15;;;9.70;;
76761;SDS011;65705;51.032;13.790;2023-03-20T09:41:14;18.35;;;10.20;;
76761;SDS011;65705;51.032;13.790;2023-03-20T09:43:50;16.75;;;8.93;;
76761;SDS011;65705;51.032;13.790;2023-03-20T09:49:30;14.60;;;8.15;;
76761;SDS011;65705;51.032;13.790;2023-03-20T09:52:02;14.75;;;7.57;;
76761;SDS011;65705;51.032;13.790;2023-03-20T09:54:41;21.77;;;9.00;;
76761;SDS011;65705;51.032;13.790;2023-03-20T09:57:19;19.17;;;10.27;;
76761;SDS011;65705;51.032;13.790;2023-03-20T09:59:49;19.50;;;10.02;;
76761;SDS011;65705;51.032;13.790;2023-03-20T10:02:34;20.30;;;11.05;;
76761;SDS011;65705;51.032;13.790;2023-03-20T10:05:01;28.52;;;12.15;;
76761;SDS011;65705;51.032;13.790;2023-03-20T10:07:30;16.55;;;9.60;;
76761;SDS011;65705;51.032;13.790;2023-03-20T10:09:55;15.93;;;9.85;;
76761;SDS011;65705;51.032;13.790;2023-03-20T10:18:24;21.65;;;11.32;;
76761;SDS011;65705;51.032;13.790;2023-03-20T10:21:04;30.00;;;14.82;;
76761;SDS011;65705;51.032;13.790;2023-03-20T10:26:08;25.27;;;12.90;;
76761;SDS011;65705;51.032;13.790;2023-03-20T10:33:53;22.33;;;12.18;;
76761;SDS011;65705;51.032;13.790;2023-03-20T10:41:59;20.58;;;11.73;;
76761;SDS011;65705;51.032;13.790;2023-03-20T10:44:32;23.52;;;11.32;;
76761;SDS011;65705;51.032;13.790;2023-03-20T10:47:02;23.27;;;11.93;;
76761;SDS011;65705;51.032;13.790;2023-03-20T10:49:38;20.50;;;10.88;;
76761;SDS011;65705;51.032;13.790;2023-03-20T10:52:18;20.15;;;11.05;;
76761;SDS011;65705;51.032;13.790;2023-03-20T10:54:51;20.27;;;11.45;;
76761;SDS011;65705;51.032;13.790;2023-03-20T10:57:23;24.13;;;11.60;;
76761;SDS011;65705;51.032;13.790;2023-03-20T10:59:51;22.40;;;11.55;;
76761;SDS011;65705;51.032;13.790;2023-03-20T11:02:23;19.42;;;11.38;;
76761;SDS011;65705;51.032;13.790;2023-03-20T11:04:52;22.67;;;12.57;;
76761;SDS011;65705;51.032;13.790;2023-03-20T11:07:21;26.55;;;12.43;;
76761;SDS011;65705;51.032;13.790;2023-03-20T11:15:13;26.15;;;12.85;;
76761;SDS011;65705;51.032;13.790;2023-03-20T11:17:40;24.25;;;12.75;;
76761;SDS011;65705;51.032;13.790;2023-03-20T11:20:06;22.75;;;12.23;;
76761;SDS011;65705;51.032;13.790;2023-03-20T11:22:32;20.10;;;12.23;;
76761;SDS011;65705;51.032;13.790;2023-03-20T11:25:01;21.67;;;11.27;;
76761;SDS011;65705;51.032;13.790;2023-03-20T11:27:28;20.30;;;12.23;;
76761;SDS011;65705;51.032;13.790;2023-03-20T11:29:57;21.10;;;12.43;;
76761;SDS011;65705;51.032;13.790;2023-03-20T11:32:33;23.00;;;12.55;;
76761;SDS011;65705;51.032;13.790;2023-03-20T11:37:51;19.58;;;10.73;;
76761;SDS011;65705;51.032;13.790;2023-03-20T11:42:56;20.65;;;12.27;;
76761;SDS011;65705;51.032;13.790;2023-03-20T11:45:27;19.27;;;10.77;;
76761;SDS011;65705;51.032;13.790;2023-03-20T11:47:59;20.92;;;11.75;;
76761;SDS011;65705;51.032;13.790;2023-03-20T11:52:52;20.27;;;11.40;;
76761;SDS011;65705;51.032;13.790;2023-03-20T11:55:23;19.40;;;10.73;;
76761;SDS011;65705;51.032;13.790;2023-03-20T11:57:58;19.92;;;11.02;;
76761;SDS011;65705;51.032;13.790;2023-03-20T12:00:27;22.98;;;11.93;;
76761;SDS011;65705;51.032;13.790;2023-03-20T12:03:01;24.02;;;11.45;;
76761;SDS011;65705;51.032;13.790;2023-03-20T12:05:32;20.17;;;10.82;;
76761;SDS011;65705;51.032;13.790;2023-03-20T12:08:06;21.27;;;11.15;;
76761;SDS011;65705;51.032;13.790;2023-03-20T12:10:38;21.85;;;10.93;;
76761;SDS011;65705;51.032;13.790;2023-03-20T12:15:40;19.20;;;10.73;;
76761;SDS011;65705;51.032;13.790;2023-03-20T12:18:32;18.88;;;11.07;;
76761;SDS011;65705;51.032;13.790;2023-03-20T12:21:07;18.02;;;10.80;;
76761;SDS011;65705;51.032;13.790;2023-03-20T12:23:46;23.27;;;12.57;;
76761;SDS011;65705;51.032;13.790;2023-03-20T12:26:35;18.88;;;11.50;;
76761;SDS011;65705;51.032;13.790;2023-03-20T12:36:58;24.63;;;12.63;;
76761;SDS011;65705;51.032;13.790;2023-03-20T12:39:32;22.13;;;11.80;;
76761;SDS011;65705;51.032;13.790;2023-03-20T12:44:53;20.50;;;12.13;;
76761;SDS011;65705;51.032;13.790;2023-03-20T13:00:23;25.25;;;12.65;;
76761;SDS011;65705;51.032;13.790;2023-03-20T13:05:34;22.15;;;12.07;;
76761;SDS011;65705;51.032;13.790;2023-03-20T13:10:33;26.65;;;12.32;;
76761;SDS011;65705;51.032;13.790;2023-03-20T13:21:15;27.70;;;14.38;;
76761;SDS011;65705;51.032;13.790;2023-03-20T13:26:40;26.02;;;14.13;;
76761;SDS011;65705;51.032;13.790;2023-03-20T13:34:33;27.63;;;14.65;;
76761;SDS011;65705;51.032;13.790;2023-03-20T13:37:22;24.55;;;13.25;;
76761;SDS011;65705;51.032;13.790;2023-03-20T13:42:46;22.60;;;12.52;;
76761;SDS011;65705;51.032;13.790;2023-03-20T13:47:51;27.48;;;14.60;;
76761;SDS011;65705;51.032;13.790;2023-03-20T13:50:29;30.08;;;14.80;;
76761;SDS011;65705;51.032;13.790;2023-03-20T13:53:24;25.90;;;14.60;;
76761;SDS011;65705;51.032;13.790;2023-03-20T13:56:19;27.50;;;14.75;;
76761;SDS011;65705;51.032;13.790;2023-03-20T13:58:50;26.30;;;14.25;;
76761;SDS011;65705;51.032;13.790;2023-03-20T14:01:33;30.58;;;15.82;;
76761;SDS011;65705;51.032;13.790;2023-03-20T14:04:17;28.67;;;14.82;;
76761;SDS011;65705;51.032;13.790;2023-03-20T14:06:47;27.92;;;14.85;;
76761;SDS011;65705;51.032;13.790;2023-03-20T14:09:33;28.42;;;15.02;;
76761;SDS011;65705;51.032;13.790;2023-03-20T14:12:01;28.15;;;14.98;;
76761;SDS011;65705;51.032;13.790;2023-03-20T14:14:42;27.50;;;15.15;;
76761;SDS011;65705;51.032;13.790;2023-03-20T14:17:22;27.50;;;15.90;;
76761;SDS011;65705;51.032;13.790;2023-03-20T14:19:51;27.00;;;15.00;;
76761;SDS011;65705;51.032;13.790;2023-03-20T14:22:23;30.48;;;16.15;;
76761;SDS011;65705;51.032;13.790;2023-03-20T14:24:58;30.30;;;16.60;;
76761;SDS011;65705;51.032;13.790;2023-03-20T14:27:28;35.58;;;16.17;;
76761;SDS011;65705;51.032;13.790;2023-03-20T14:30:38;31.10;;;14.85;;
76761;SDS011;65705;51.032;13.790;2023-03-20T14:32:57;28.83;;;16.10;;
76761;SDS011;65705;51.032;13.790;2023-03-20T14:35:25;30.45;;;15.52;;
76761;SDS011;65705;51.032;13.790;2023-03-20T14:40:42;31.17;;;15.88;;
76761;SDS011;65705;51.032;13.790;2023-03-20T14:43:25;29.13;;;15.30;;
76761;SDS011;65705;51.032;13.790;2023-03-20T14:45:59;33.60;;;16.95;;
76761;SDS011;65705;51.032;13.790;2023-03-20T14:48:34;33.60;;;16.77;;
76761;SDS011;65705;51.032;13.790;2023-03-20T14:51:13;36.47;;;17.60;;
76761;SDS011;65705;51.032;13.790;2023-03-20T14:54:23;35.38;;;17.65;;
76761;SDS011;65705;51.032;13.790;2023-03-20T14:56:52;33.15;;;16.23;;
76761;SDS011;65705;51.032;13.790;2023-03-20T14:59:21;33.83;;;17.33;;
76761;SDS011;65705;51.032;13.790;2023-03-20T15:04:24;37.65;;;18.88;;
76761;SDS011;65705;51.032;13.790;2023-03-20T15:07:09;37.58;;;17.75;;
76761;SDS011;65705;51.032;13.790;2023-03-20T15:09:36;36.97;;;18.58;;
76761;SDS011;65705;51.032;13.790;2023-03-20T15:12:05;39.88;;;20.55;;
76761;SDS011;65705;51.032;13.790;2023-03-20T15:14:33;37.05;;;18.88;;
76761;SDS011;65705;51.032;13.790;2023-03-20T15:17:16;35.42;;;19.48;;
76761;SDS011;65705;51.032;13.790;2023-03-20T15:19:44;39.13;;;20.40;;
76761;SDS011;65705;51.032;13.790;2023-03-20T15:22:13;33.65;;;17.95;;
76761;SDS011;65705;51.032;13.790;2023-03-20T15:24:41;38.92;;;18.88;;
76761;SDS011;65705;51.032;13.790;2023-03-20T15:27:08;36.40;;;19.85;;
76761;SDS011;65705;51.032;13.790;2023-03-20T15:29:37;39.50;;;20.23;;
76761;SDS011;65705;51.032;13.790;2023-03-20T15:32:13;39.30;;;18.95;;
76761;SDS011;65705;51.032;13.790;2023-03-20T15:34:40;40.85;;;20.17;;
76761;SDS011;65705;51.032;13.790;2023-03-20T15:37:08;39.50;;;20.35;;
76761;SDS011;65705;51.032;13.790;2023-03-20T15:39:57;43.58;;;20.50;;
76761;SDS011;65705;51.032;13.790;2023-03-20T15:42:25;42.53;;;21.23;;
76761;SDS011;65705;51.032;13.790;2023-03-20T15:44:52;44.45;;;20.83;;
76761;SDS011;65705;51.032;13.790;2023-03-20T15:47:21;42.50;;;22.08;;
76761;SDS011;65705;51.032;13.790;2023-03-20T15:49:49;43.55;;;19.95;;
76761;SDS011;65705;51.032;13.790;2023-03-20T15:55:03;37.67;;;18.08;;
76761;SDS011;65705;51.032;13.790;2023-03-20T15:57:35;35.97;;;17.63;;
76761;SDS011;65705;51.032;13.790;2023-03-20T16:00:07;34.92;;;18.83;;
76761;SDS011;65705;51.032;13.790;2023-03-20T16:02:38;33.47;;;17.70;;
76761;SDS011;65705;51.032;13.790;2023-03-20T16:05:07;36.80;;;18.67;;
76761;SDS011;65705;51.032;13.790;2023-03-20T16:07:37;36.05;;;19.92;;
76761;SDS011;65705;51.032;13.790;2023-03-20T16:10:03;36.03;;;18.40;;
76761;SDS011;65705;51.032;13.790;2023-03-20T16:12:44;35.40;;;18.35;;
76761;SDS011;65705;51.032;13.790;2023-03-20T16:15:16;35.20;;;17.58;;
76761;SDS011;65705;51.032;13.790;2023-03-20T16:17:43;32.60;;;17.77;;
76761;SDS011;65705;51.032;13.790;2023-03-20T16:20:16;32.65;;;16.30;;
76761;SDS011;65705;51.032;13.790;2023-03-20T16:22:42;31.70;;;16.73;;
76761;SDS011;65705;51.032;13.790;2023-03-20T16:25:14;32.83;;;16.67;;
76761;SDS011;65705;51.032;13.790;2023-03-20T16:27:42;34.92;;;16.80;;
76761;SDS011;65705;51.032;13.790;2023-03-20T16:30:18;34.58;;;17.83;;
76761;SDS011;65705;51.032;13.790;2023-03-20T16:32:58;33.33;;;16.30;;
76761;SDS011;65705;51.032;13.790;2023-03-20T16:35:28;33.60;;;17.40;;
76761;SDS011;65705;51.032;13.790;2023-03-20T16:38:00;35.22;;;17.50;;
76761;SDS011;65705;51.032;13.790;2023-03-20T16:42:52;30.65;;;17.10;;
76761;SDS011;65705;51.032;13.790;2023-03-20T16:50:37;55.30;;;30.17;;
76761;SDS011;65705;51.032;13.790;2023-03-20T16:53:04;63.58;;;32.58;;
76761;SDS011;65705;51.032;13.790;2023-03-20T16:55:40;121.07;;;61.25;;
76761;SDS011;65705;51.032;13.790;2023-03-20T16:58:10;47.53;;;24.73;;
76761;SDS011;65705;51.032;13.790;2023-03-20T17:03:15;35.45;;;18.95;;
76761;SDS011;65705;51.032;13.790;2023-03-20T17:05:50;36.00;;;18.13;;
76761;SDS011;65705;51.032;13.790;2023-03-20T17:08:27;34.05;;;17.02;;